createdAt,value
2022-11-28T00:00:04.469Z,97813.00
2022-11-28T00:00:14.490Z,97817.00
2022-11-28T00:00:24.499Z,97815.00
2022-11-28T00:00:34.507Z,97815.00
2022-11-28T00:00:44.562Z,97815.00
2022-11-28T00:00:54.560Z,97815.00
2022-11-28T00:01:04.561Z,97813.00
2022-11-28T00:01:14.572Z,97815.00
2022-11-28T00:01:24.570Z,97815.00
2022-11-28T00:01:34.704Z,97813.00
2022-11-28T00:01:44.799Z,97811.00
2022-11-28T00:01:54.902Z,97815.00
2022-11-28T00:02:04.957Z,97813.00
2022-11-28T00:02:15.108Z,97811.00
2022-11-28T00:02:25.193Z,97811.00
2022-11-28T00:02:35.212Z,97811.00
2022-11-28T00:02:45.336Z,97811.00
2022-11-28T00:02:55.265Z,97813.00
2022-11-28T00:03:05.362Z,97811.00
2022-11-28T00:03:15.490Z,97811.00
2022-11-28T00:03:25.667Z,97811.00
2022-11-28T00:03:35.772Z,97809.00
2022-11-28T00:03:45.729Z,97809.00
2022-11-28T00:03:55.975Z,97809.00
2022-11-28T00:04:06.030Z,97807.00
2022-11-28T00:04:16.134Z,97809.00
2022-11-28T00:04:26.149Z,97807.00
2022-11-28T00:04:36.266Z,97809.00
2022-11-28T00:04:46.291Z,97807.00
2022-11-28T00:04:56.336Z,97807.00
2022-11-28T00:05:06.414Z,97807.00
2022-11-28T00:05:16.552Z,97807.00
2022-11-28T00:05:26.505Z,97807.00
2022-11-28T00:05:36.592Z,97807.00
2022-11-28T00:05:47.035Z,97807.00
2022-11-28T00:05:56.755Z,97809.00
2022-11-28T00:06:06.813Z,97805.00
2022-11-28T00:06:17.015Z,97809.00
2022-11-28T00:06:27.118Z,97807.00
2022-11-28T00:06:37.191Z,97805.00
2022-11-28T00:06:47.457Z,97805.00
2022-11-28T00:06:57.586Z,97805.00
2022-11-28T00:07:07.637Z,97805.00
2022-11-28T00:07:18.045Z,97805.00
2022-11-28T00:07:28.139Z,97807.00
2022-11-28T00:07:38.150Z,97807.00
2022-11-28T00:07:48.120Z,97805.00
2022-11-28T00:07:58.217Z,97807.00
2022-11-28T00:08:08.222Z,97807.00
2022-11-28T00:08:18.283Z,97805.00
2022-11-28T00:08:28.323Z,97809.00
2022-11-28T00:08:38.334Z,97807.00
2022-11-28T00:08:48.329Z,97809.00
2022-11-28T00:08:58.716Z,97809.00
2022-11-28T00:09:08.726Z,97809.00
2022-11-28T00:09:18.728Z,97809.00
2022-11-28T00:09:28.735Z,97809.00
2022-11-28T00:09:38.747Z,97809.00
2022-11-28T00:09:48.757Z,97807.00
2022-11-28T00:09:58.764Z,97807.00
2022-11-28T00:10:08.774Z,97809.00
2022-11-28T00:10:18.810Z,97809.00
2022-11-28T00:10:28.808Z,97807.00
2022-11-28T00:10:39.189Z,97809.00
2022-11-28T00:10:49.186Z,97805.00
2022-11-28T00:10:59.191Z,97807.00
2022-11-28T00:11:09.211Z,97805.00
2022-11-28T00:11:19.232Z,97805.00
2022-11-28T00:11:29.265Z,97805.00
2022-11-28T00:11:39.271Z,97805.00
2022-11-28T00:11:49.297Z,97805.00
2022-11-28T00:11:59.294Z,97807.00
2022-11-28T00:12:09.294Z,97807.00
2022-11-28T00:12:19.670Z,97809.00
2022-11-28T00:12:29.695Z,97809.00
2022-11-28T00:12:39.691Z,97809.00
2022-11-28T00:12:49.689Z,97809.00
2022-11-28T00:12:59.814Z,97809.00
2022-11-28T00:13:09.814Z,97809.00
2022-11-28T00:13:19.983Z,97809.00
2022-11-28T00:13:30.002Z,97813.00
2022-11-28T00:13:40.008Z,97811.00
2022-11-28T00:13:50.006Z,97813.00
2022-11-28T00:14:00.151Z,97813.00
2022-11-28T00:14:10.163Z,97813.00
2022-11-28T00:14:20.272Z,97813.00
2022-11-28T00:14:30.535Z,97811.00
2022-11-28T00:14:40.914Z,97811.00
2022-11-28T00:14:50.753Z,97811.00
2022-11-28T00:15:01.007Z,97811.00
2022-11-28T00:15:11.005Z,97811.00
2022-11-28T00:15:21.124Z,97811.00
2022-11-28T00:15:31.394Z,97811.00
2022-11-28T00:15:41.544Z,97811.00
2022-11-28T00:15:51.582Z,97811.00
2022-11-28T00:16:01.906Z,97811.00
2022-11-28T00:16:11.881Z,97811.00
2022-11-28T00:16:22.039Z,97811.00
2022-11-28T00:16:32.114Z,97811.00
2022-11-28T00:16:42.018Z,97809.00
2022-11-28T00:16:52.021Z,97809.00
2022-11-28T00:17:02.021Z,97811.00
2022-11-28T00:17:12.167Z,97807.00
2022-11-28T00:17:22.167Z,97807.00
2022-11-28T00:17:32.176Z,97807.00
2022-11-28T00:17:42.189Z,97809.00
2022-11-28T00:17:52.203Z,97807.00
2022-11-28T00:18:02.207Z,97807.00
2022-11-28T00:18:12.215Z,97809.00
2022-11-28T00:18:22.246Z,97807.00
2022-11-28T00:18:32.262Z,97811.00
2022-11-28T00:18:42.259Z,97805.00
2022-11-28T00:18:52.256Z,97805.00
2022-11-28T00:19:02.281Z,97805.00
2022-11-28T00:19:12.314Z,97809.00
2022-11-28T00:19:22.447Z,97805.00
2022-11-28T00:19:32.449Z,97809.00
2022-11-28T00:19:42.571Z,97803.00
2022-11-28T00:19:52.572Z,97807.00
2022-11-28T00:20:02.705Z,97805.00
2022-11-28T00:20:12.732Z,97807.00
2022-11-28T00:20:22.922Z,97805.00
2022-11-28T00:20:32.890Z,97805.00
2022-11-28T00:20:43.023Z,97805.00
2022-11-28T00:20:53.023Z,97805.00
2022-11-28T00:21:03.141Z,97805.00
2022-11-28T00:21:13.200Z,97805.00
2022-11-28T00:21:23.214Z,97805.00
2022-11-28T00:21:33.179Z,97805.00
2022-11-28T00:21:43.316Z,97805.00
2022-11-28T00:21:53.317Z,97805.00
2022-11-28T00:22:03.346Z,97805.00
2022-11-28T00:22:13.358Z,97805.00
2022-11-28T00:22:23.378Z,97805.00
2022-11-28T00:22:33.395Z,97805.00
2022-11-28T00:22:43.402Z,97805.00
2022-11-28T00:22:53.412Z,97803.00
2022-11-28T00:23:03.415Z,97803.00
2022-11-28T00:23:13.414Z,97803.00
2022-11-28T00:23:23.433Z,97803.00
2022-11-28T00:23:33.461Z,97805.00
2022-11-28T00:23:43.455Z,97805.00
2022-11-28T00:23:53.488Z,97803.00
2022-11-28T00:24:03.501Z,97801.00
2022-11-28T00:24:13.620Z,97803.00
2022-11-28T00:24:23.620Z,97805.00
2022-11-28T00:24:33.876Z,97803.00
2022-11-28T00:24:44.200Z,97803.00
2022-11-28T00:24:53.968Z,97801.00
2022-11-28T00:25:03.970Z,97805.00
2022-11-28T00:25:14.095Z,97803.00
2022-11-28T00:25:24.096Z,97801.00
2022-11-28T00:25:34.216Z,97801.00
2022-11-28T00:25:44.223Z,97801.00
2022-11-28T00:25:54.226Z,97799.00
2022-11-28T00:26:04.236Z,97799.00
2022-11-28T00:26:14.364Z,97797.00
2022-11-28T00:26:24.379Z,97797.00
2022-11-28T00:26:34.383Z,97797.00
2022-11-28T00:26:44.381Z,97801.00
2022-11-28T00:26:54.511Z,97797.00
2022-11-28T00:27:04.515Z,97799.00
2022-11-28T00:27:14.522Z,97797.00
2022-11-28T00:27:24.533Z,97799.00
2022-11-28T00:27:34.659Z,97797.00
2022-11-28T00:27:44.652Z,97799.00
2022-11-28T00:27:54.777Z,97797.00
2022-11-28T00:28:04.778Z,97797.00
2022-11-28T00:28:14.902Z,97797.00
2022-11-28T00:28:25.190Z,97799.00
2022-11-28T00:28:35.193Z,97799.00
2022-11-28T00:28:45.198Z,97799.00
2022-11-28T00:28:55.573Z,97801.00
2022-11-28T00:29:05.578Z,97799.00
2022-11-28T00:29:15.575Z,97803.00
2022-11-28T00:29:25.583Z,97801.00
2022-11-28T00:29:35.700Z,97799.00
2022-11-28T00:29:45.705Z,97799.00
2022-11-28T00:29:55.723Z,97801.00
2022-11-28T00:30:05.729Z,97799.00
2022-11-28T00:30:15.737Z,97799.00
2022-11-28T00:30:25.741Z,97801.00
2022-11-28T00:30:36.017Z,97801.00
2022-11-28T00:30:46.032Z,97801.00
2022-11-28T00:30:56.146Z,97799.00
2022-11-28T00:31:06.416Z,97799.00
2022-11-28T00:31:16.481Z,97801.00
2022-11-28T00:31:26.601Z,97803.00
2022-11-28T00:31:36.587Z,97801.00
2022-11-28T00:31:46.652Z,97799.00
2022-11-28T00:31:56.679Z,97797.00
2022-11-28T00:32:06.768Z,97797.00
2022-11-28T00:32:16.850Z,97797.00
2022-11-28T00:32:26.800Z,97799.00
2022-11-28T00:32:36.807Z,97797.00
2022-11-28T00:32:46.827Z,97797.00
2022-11-28T00:32:56.862Z,97797.00
2022-11-28T00:33:06.859Z,97793.00
2022-11-28T00:33:16.876Z,97793.00
2022-11-28T00:33:26.881Z,97793.00
2022-11-28T00:33:36.879Z,97793.00
2022-11-28T00:33:46.884Z,97793.00
2022-11-28T00:33:56.890Z,97793.00
2022-11-28T00:34:06.897Z,97791.00
2022-11-28T00:34:16.907Z,97791.00
2022-11-28T00:34:26.915Z,97789.00
2022-11-28T00:34:36.924Z,97791.00
2022-11-28T00:34:46.947Z,97791.00
2022-11-28T00:34:56.978Z,97791.00
2022-11-28T00:35:06.979Z,97791.00
2022-11-28T00:35:17.112Z,97787.00
2022-11-28T00:35:27.232Z,97787.00
2022-11-28T00:35:37.207Z,97789.00
2022-11-28T00:35:47.216Z,97787.00
2022-11-28T00:35:57.222Z,97787.00
2022-11-28T00:36:07.217Z,97789.00
2022-11-28T00:36:17.473Z,97789.00
2022-11-28T00:36:27.468Z,97789.00
2022-11-28T00:36:37.599Z,97789.00
2022-11-28T00:36:47.856Z,97791.00
2022-11-28T00:36:57.871Z,97791.00
2022-11-28T00:37:07.875Z,97791.00
2022-11-28T00:37:18.251Z,97791.00
2022-11-28T00:37:28.258Z,97793.00
2022-11-28T00:37:38.259Z,97793.00
2022-11-28T00:37:48.269Z,97795.00
2022-11-28T00:37:58.268Z,97795.00
2022-11-28T00:38:08.269Z,97797.00
2022-11-28T00:38:18.387Z,97797.00
2022-11-28T00:38:28.394Z,97797.00
2022-11-28T00:38:38.517Z,97797.00
2022-11-28T00:38:48.513Z,97797.00
2022-11-28T00:38:58.665Z,97799.00
2022-11-28T00:39:08.647Z,97795.00
2022-11-28T00:39:18.649Z,97797.00
2022-11-28T00:39:28.659Z,97797.00
2022-11-28T00:39:38.778Z,97797.00
2022-11-28T00:39:48.781Z,97795.00
2022-11-28T00:39:58.792Z,97797.00
2022-11-28T00:40:08.826Z,97797.00
2022-11-28T00:40:18.842Z,97799.00
2022-11-28T00:40:28.847Z,97797.00
2022-11-28T00:40:39.107Z,97797.00
2022-11-28T00:40:49.107Z,97797.00
2022-11-28T00:40:59.231Z,97797.00
2022-11-28T00:41:09.490Z,97795.00
2022-11-28T00:41:19.494Z,97795.00
2022-11-28T00:41:29.494Z,97797.00
2022-11-28T00:41:39.506Z,97791.00
2022-11-28T00:41:49.522Z,97793.00
2022-11-28T00:41:59.561Z,97793.00
2022-11-28T00:42:09.572Z,97795.00
2022-11-28T00:42:19.584Z,97793.00
2022-11-28T00:42:29.594Z,97795.00
2022-11-28T00:42:39.601Z,97793.00
2022-11-28T00:42:49.614Z,97793.00
2022-11-28T00:42:59.635Z,97793.00
2022-11-28T00:43:09.655Z,97795.00
2022-11-28T00:43:19.771Z,97795.00
2022-11-28T00:43:29.775Z,97793.00
2022-11-28T00:43:39.823Z,97791.00
2022-11-28T00:43:49.832Z,97791.00
2022-11-28T00:44:00.102Z,97791.00
2022-11-28T00:44:10.102Z,97793.00
2022-11-28T00:44:20.223Z,97793.00
2022-11-28T00:44:30.485Z,97789.00
2022-11-28T00:44:40.969Z,97791.00
2022-11-28T00:44:50.530Z,97791.00
2022-11-28T00:45:00.547Z,97793.00
2022-11-28T00:45:10.557Z,97791.00
2022-11-28T00:45:20.535Z,97793.00
2022-11-28T00:45:30.637Z,97793.00
2022-11-28T00:45:40.662Z,97791.00
2022-11-28T00:45:50.727Z,97793.00
2022-11-28T00:46:00.754Z,97793.00
2022-11-28T00:46:11.117Z,97791.00
2022-11-28T00:46:21.215Z,97791.00
2022-11-28T00:46:31.216Z,97791.00
2022-11-28T00:46:41.476Z,97789.00
2022-11-28T00:46:51.478Z,97787.00
2022-11-28T00:47:01.481Z,97787.00
2022-11-28T00:47:11.483Z,97785.00
2022-11-28T00:47:21.608Z,97789.00
2022-11-28T00:47:31.609Z,97789.00
2022-11-28T00:47:41.731Z,97789.00
2022-11-28T00:47:51.745Z,97787.00
2022-11-28T00:48:01.737Z,97789.00
2022-11-28T00:48:11.741Z,97789.00
2022-11-28T00:48:21.872Z,97789.00
2022-11-28T00:48:31.872Z,97787.00
2022-11-28T00:48:41.992Z,97789.00
2022-11-28T00:48:52.249Z,97787.00
2022-11-28T00:49:02.379Z,97787.00
2022-11-28T00:49:12.397Z,97789.00
2022-11-28T00:49:22.656Z,97787.00
2022-11-28T00:49:32.675Z,97787.00
2022-11-28T00:49:42.684Z,97789.00
2022-11-28T00:49:52.692Z,97789.00
2022-11-28T00:50:02.701Z,97789.00
2022-11-28T00:50:12.716Z,97787.00
2022-11-28T00:50:22.724Z,97787.00
2022-11-28T00:50:32.863Z,97789.00
2022-11-28T00:50:42.838Z,97787.00
2022-11-28T00:50:52.837Z,97787.00
2022-11-28T00:51:02.852Z,97789.00
2022-11-28T00:51:12.872Z,97787.00
2022-11-28T00:51:22.988Z,97789.00
2022-11-28T00:51:32.988Z,97787.00
2022-11-28T00:51:43.115Z,97789.00
2022-11-28T00:51:53.115Z,97787.00
2022-11-28T00:52:03.120Z,97791.00
2022-11-28T00:52:13.267Z,97787.00
2022-11-28T00:52:23.387Z,97789.00
2022-11-28T00:52:33.394Z,97789.00
2022-11-28T00:52:43.652Z,97791.00
2022-11-28T00:52:53.668Z,97789.00
2022-11-28T00:53:03.670Z,97791.00
2022-11-28T00:53:13.670Z,97789.00
2022-11-28T00:53:23.676Z,97789.00
2022-11-28T00:53:33.677Z,97789.00
2022-11-28T00:53:43.689Z,97793.00
2022-11-28T00:53:53.707Z,97793.00
2022-11-28T00:54:03.709Z,97791.00
2022-11-28T00:54:13.713Z,97791.00
2022-11-28T00:54:24.097Z,97795.00
2022-11-28T00:54:34.109Z,97793.00
2022-11-28T00:54:44.342Z,97793.00
2022-11-28T00:54:54.149Z,97795.00
2022-11-28T00:55:04.157Z,97795.00
2022-11-28T00:55:14.161Z,97795.00
2022-11-28T00:55:24.163Z,97793.00
2022-11-28T00:55:34.169Z,97793.00
2022-11-28T00:55:44.299Z,97791.00
2022-11-28T00:55:54.303Z,97791.00
2022-11-28T00:56:04.562Z,97793.00
2022-11-28T00:56:14.563Z,97791.00
2022-11-28T00:56:24.566Z,97793.00
2022-11-28T00:56:34.564Z,97793.00
2022-11-28T00:56:44.690Z,97793.00
2022-11-28T00:56:54.691Z,97795.00
2022-11-28T00:57:04.814Z,97795.00
2022-11-28T00:57:14.819Z,97795.00
2022-11-28T00:57:24.824Z,97793.00
2022-11-28T00:57:34.822Z,97795.00
2022-11-28T00:57:44.944Z,97797.00
2022-11-28T00:57:54.965Z,97793.00
2022-11-28T00:58:05.085Z,97793.00
2022-11-28T00:58:15.367Z,97797.00
2022-11-28T00:58:25.364Z,97793.00
2022-11-28T00:58:35.361Z,97795.00
2022-11-28T00:58:45.737Z,97791.00
2022-11-28T00:58:55.741Z,97793.00
2022-11-28T00:59:05.831Z,97797.00
2022-11-28T00:59:15.825Z,97795.00
2022-11-28T00:59:25.951Z,97795.00
2022-11-28T00:59:35.947Z,97795.00
2022-11-28T00:59:45.953Z,97795.00
2022-11-28T00:59:55.966Z,97795.00
2022-11-28T01:00:05.969Z,97795.00
2022-11-28T01:00:15.969Z,97793.00
2022-11-28T01:00:26.211Z,97793.00
2022-11-28T01:00:36.211Z,97795.00
2022-11-28T01:00:46.245Z,97795.00
2022-11-28T01:00:56.353Z,97791.00
2022-11-28T01:01:06.432Z,97795.00
2022-11-28T01:01:16.457Z,97793.00
2022-11-28T01:01:26.593Z,97795.00
2022-11-28T01:01:36.676Z,97795.00
2022-11-28T01:01:46.672Z,97791.00
2022-11-28T01:01:56.684Z,97795.00
2022-11-28T01:02:06.921Z,97795.00
2022-11-28T01:02:16.980Z,97793.00
2022-11-28T01:02:26.921Z,97793.00
2022-11-28T01:02:36.960Z,97797.00
2022-11-28T01:02:47.088Z,97795.00
2022-11-28T01:02:57.077Z,97795.00
2022-11-28T01:03:07.081Z,97795.00
2022-11-28T01:03:17.095Z,97797.00
2022-11-28T01:03:27.116Z,97797.00
2022-11-28T01:03:37.129Z,97797.00
2022-11-28T01:03:47.134Z,97795.00
2022-11-28T01:03:57.132Z,97797.00
2022-11-28T01:04:07.140Z,97795.00
2022-11-28T01:04:17.151Z,97795.00
2022-11-28T01:04:27.174Z,97795.00
2022-11-28T01:04:37.166Z,97799.00
2022-11-28T01:04:47.183Z,97797.00
2022-11-28T01:04:57.186Z,97799.00
2022-11-28T01:05:07.205Z,97799.00
2022-11-28T01:05:17.206Z,97799.00
2022-11-28T01:05:27.225Z,97801.00
2022-11-28T01:05:37.353Z,97799.00
2022-11-28T01:05:47.324Z,97801.00
2022-11-28T01:05:57.446Z,97801.00
2022-11-28T01:06:07.714Z,97799.00
2022-11-28T01:06:17.835Z,97803.00
2022-11-28T01:06:27.838Z,97801.00
2022-11-28T01:06:38.090Z,97801.00
2022-11-28T01:06:48.096Z,97799.00
2022-11-28T01:06:58.131Z,97799.00
2022-11-28T01:07:08.129Z,97799.00
2022-11-28T01:07:18.221Z,97801.00
2022-11-28T01:07:28.279Z,97799.00
2022-11-28T01:07:38.296Z,97803.00
2022-11-28T01:07:48.361Z,97801.00
2022-11-28T01:07:58.435Z,97803.00
2022-11-28T01:08:08.514Z,97803.00
2022-11-28T01:08:18.765Z,97803.00
2022-11-28T01:08:28.779Z,97801.00
2022-11-28T01:08:38.787Z,97801.00
2022-11-28T01:08:48.782Z,97799.00
2022-11-28T01:08:58.780Z,97803.00
2022-11-28T01:09:08.781Z,97803.00
2022-11-28T01:09:18.919Z,97801.00
2022-11-28T01:09:28.925Z,97801.00
2022-11-28T01:09:39.060Z,97803.00
2022-11-28T01:09:49.058Z,97801.00
2022-11-28T01:09:59.184Z,97801.00
2022-11-28T01:10:09.190Z,97803.00
2022-11-28T01:10:19.312Z,97801.00
2022-11-28T01:10:29.566Z,97801.00
2022-11-28T01:10:39.686Z,97801.00
2022-11-28T01:10:49.687Z,97803.00
2022-11-28T01:10:59.950Z,97801.00
2022-11-28T01:11:09.953Z,97803.00
2022-11-28T01:11:19.967Z,97803.00
2022-11-28T01:11:29.971Z,97801.00
2022-11-28T01:11:39.990Z,97803.00
2022-11-28T01:11:49.992Z,97803.00
2022-11-28T01:12:00.037Z,97803.00
2022-11-28T01:12:10.055Z,97801.00
2022-11-28T01:12:20.060Z,97803.00
2022-11-28T01:12:30.071Z,97801.00
2022-11-28T01:12:40.079Z,97803.00
2022-11-28T01:12:50.092Z,97805.00
2022-11-28T01:13:00.213Z,97801.00
2022-11-28T01:13:10.255Z,97805.00
2022-11-28T01:13:20.253Z,97803.00
2022-11-28T01:13:30.255Z,97803.00
2022-11-28T01:13:40.260Z,97803.00
2022-11-28T01:13:50.517Z,97803.00
2022-11-28T01:14:00.521Z,97799.00
2022-11-28T01:14:10.536Z,97803.00
2022-11-28T01:14:20.550Z,97801.00
2022-11-28T01:14:30.570Z,97801.00
2022-11-28T01:14:40.935Z,97801.00
2022-11-28T01:14:50.652Z,97803.00
2022-11-28T01:15:00.776Z,97801.00
2022-11-28T01:15:10.781Z,97803.00
2022-11-28T01:15:20.899Z,97803.00
2022-11-28T01:15:31.048Z,97803.00
2022-11-28T01:15:41.060Z,97801.00
2022-11-28T01:15:51.130Z,97803.00
2022-11-28T01:16:01.217Z,97801.00
2022-11-28T01:16:11.297Z,97803.00
2022-11-28T01:16:21.407Z,97803.00
2022-11-28T01:16:31.388Z,97803.00
2022-11-28T01:16:41.543Z,97801.00
2022-11-28T01:16:51.623Z,97803.00
2022-11-28T01:17:01.620Z,97805.00
2022-11-28T01:17:11.880Z,97801.00
2022-11-28T01:17:21.881Z,97805.00
2022-11-28T01:17:31.880Z,97803.00
2022-11-28T01:17:42.259Z,97801.00
2022-11-28T01:17:52.257Z,97803.00
2022-11-28T01:18:02.260Z,97803.00
2022-11-28T01:18:12.273Z,97805.00
2022-11-28T01:18:22.293Z,97805.00
2022-11-28T01:18:32.291Z,97803.00
2022-11-28T01:18:42.304Z,97803.00
2022-11-28T01:18:52.351Z,97803.00
2022-11-28T01:19:02.358Z,97803.00
2022-11-28T01:19:12.368Z,97805.00
2022-11-28T01:19:22.394Z,97803.00
2022-11-28T01:19:32.386Z,97803.00
2022-11-28T01:19:42.505Z,97801.00
2022-11-28T01:19:52.510Z,97803.00
2022-11-28T01:20:02.524Z,97803.00
2022-11-28T01:20:12.526Z,97801.00
2022-11-28T01:20:22.542Z,97805.00
2022-11-28T01:20:32.799Z,97801.00
2022-11-28T01:20:43.039Z,97805.00
2022-11-28T01:20:53.011Z,97801.00
2022-11-28T01:21:03.277Z,97803.00
2022-11-28T01:21:13.308Z,97803.00
2022-11-28T01:21:23.298Z,97803.00
2022-11-28T01:21:33.315Z,97803.00
2022-11-28T01:21:43.324Z,97805.00
2022-11-28T01:21:53.326Z,97803.00
2022-11-28T01:22:03.446Z,97803.00
2022-11-28T01:22:13.458Z,97805.00
2022-11-28T01:22:23.590Z,97805.00
2022-11-28T01:22:33.598Z,97807.00
2022-11-28T01:22:43.718Z,97805.00
2022-11-28T01:22:53.714Z,97807.00
2022-11-28T01:23:03.723Z,97805.00
2022-11-28T01:23:13.726Z,97805.00
2022-11-28T01:23:23.874Z,97809.00
2022-11-28T01:23:33.849Z,97809.00
2022-11-28T01:23:43.851Z,97811.00
2022-11-28T01:23:53.864Z,97809.00
2022-11-28T01:24:03.975Z,97811.00
2022-11-28T01:24:13.990Z,97811.00
2022-11-28T01:24:24.129Z,97813.00
2022-11-28T01:24:34.129Z,97813.00
2022-11-28T01:24:44.425Z,97813.00
2022-11-28T01:24:54.142Z,97813.00
2022-11-28T01:25:04.268Z,97813.00
2022-11-28T01:25:14.271Z,97815.00
2022-11-28T01:25:24.274Z,97815.00
2022-11-28T01:25:34.324Z,97813.00
2022-11-28T01:25:44.462Z,97813.00
2022-11-28T01:25:54.492Z,97817.00
2022-11-28T01:26:04.614Z,97819.00
2022-11-28T01:26:14.614Z,97817.00
2022-11-28T01:26:24.742Z,97819.00
2022-11-28T01:26:35.003Z,97819.00
2022-11-28T01:26:44.996Z,97819.00
2022-11-28T01:26:55.003Z,97819.00
2022-11-28T01:27:05.001Z,97821.00
2022-11-28T01:27:15.015Z,97819.00
2022-11-28T01:27:25.021Z,97817.00
2022-11-28T01:27:35.019Z,97819.00
2022-11-28T01:27:45.144Z,97817.00
2022-11-28T01:27:55.142Z,97817.00
2022-11-28T01:28:05.154Z,97817.00
2022-11-28T01:28:15.404Z,97819.00
2022-11-28T01:28:25.530Z,97817.00
2022-11-28T01:28:35.530Z,97819.00
2022-11-28T01:28:45.793Z,97815.00
2022-11-28T01:28:55.805Z,97819.00
2022-11-28T01:29:05.820Z,97817.00
2022-11-28T01:29:15.846Z,97819.00
2022-11-28T01:29:25.881Z,97819.00
2022-11-28T01:29:35.891Z,97817.00
2022-11-28T01:29:46.015Z,97817.00
2022-11-28T01:29:56.017Z,97817.00
2022-11-28T01:30:06.144Z,97815.00
2022-11-28T01:30:16.152Z,97815.00
2022-11-28T01:30:26.291Z,97817.00
2022-11-28T01:30:36.288Z,97815.00
2022-11-28T01:30:46.406Z,97815.00
2022-11-28T01:30:56.667Z,97811.00
2022-11-28T01:31:06.847Z,97811.00
2022-11-28T01:31:16.958Z,97811.00
2022-11-28T01:31:27.221Z,97809.00
2022-11-28T01:31:37.219Z,97809.00
2022-11-28T01:31:47.310Z,97809.00
2022-11-28T01:31:57.319Z,97807.00
2022-11-28T01:32:07.399Z,97809.00
2022-11-28T01:32:17.346Z,97807.00
2022-11-28T01:32:27.354Z,97805.00
2022-11-28T01:32:37.363Z,97807.00
2022-11-28T01:32:47.377Z,97805.00
2022-11-28T01:32:57.387Z,97805.00
2022-11-28T01:33:07.394Z,97803.00
2022-11-28T01:33:17.403Z,97803.00
2022-11-28T01:33:27.522Z,97803.00
2022-11-28T01:33:37.530Z,97803.00
2022-11-28T01:33:47.536Z,97803.00
2022-11-28T01:33:57.555Z,97803.00
2022-11-28T01:34:07.557Z,97803.00
2022-11-28T01:34:17.815Z,97803.00
2022-11-28T01:34:27.933Z,97803.00
2022-11-28T01:34:37.955Z,97803.00
2022-11-28T01:34:48.225Z,97803.00
2022-11-28T01:34:58.223Z,97805.00
2022-11-28T01:35:08.234Z,97805.00
2022-11-28T01:35:18.245Z,97803.00
2022-11-28T01:35:28.247Z,97807.00
2022-11-28T01:35:38.245Z,97807.00
2022-11-28T01:35:48.489Z,97807.00
2022-11-28T01:35:58.470Z,97809.00
2022-11-28T01:36:08.596Z,97811.00
2022-11-28T01:36:18.591Z,97811.00
2022-11-28T01:36:28.596Z,97811.00
2022-11-28T01:36:38.602Z,97811.00
2022-11-28T01:36:48.739Z,97811.00
2022-11-28T01:36:58.980Z,97811.00
2022-11-28T01:37:09.108Z,97813.00
2022-11-28T01:37:19.115Z,97813.00
2022-11-28T01:37:29.388Z,97813.00
2022-11-28T01:37:39.388Z,97813.00
2022-11-28T01:37:49.511Z,97811.00
2022-11-28T01:37:59.784Z,97811.00
2022-11-28T01:38:09.776Z,97813.00
2022-11-28T01:38:19.777Z,97813.00
2022-11-28T01:38:29.812Z,97809.00
2022-11-28T01:38:39.822Z,97813.00
2022-11-28T01:38:49.949Z,97813.00
2022-11-28T01:38:59.946Z,97809.00
2022-11-28T01:39:10.071Z,97813.00
2022-11-28T01:39:20.083Z,97813.00
2022-11-28T01:39:30.087Z,97811.00
2022-11-28T01:39:40.218Z,97811.00
2022-11-28T01:39:50.345Z,97807.00
2022-11-28T01:40:00.344Z,97809.00
2022-11-28T01:40:10.615Z,97809.00
2022-11-28T01:40:20.622Z,97807.00
2022-11-28T01:40:30.635Z,97809.00
2022-11-28T01:40:40.642Z,97809.00
2022-11-28T01:40:50.653Z,97807.00
2022-11-28T01:41:00.662Z,97809.00
2022-11-28T01:41:10.671Z,97809.00
2022-11-28T01:41:20.686Z,97807.00
2022-11-28T01:41:30.822Z,97809.00
2022-11-28T01:41:40.814Z,97811.00
2022-11-28T01:41:51.069Z,97807.00
2022-11-28T01:42:01.077Z,97811.00
2022-11-28T01:42:11.199Z,97811.00
2022-11-28T01:42:21.458Z,97813.00
2022-11-28T01:42:31.576Z,97815.00
2022-11-28T01:42:41.579Z,97813.00
2022-11-28T01:42:51.832Z,97815.00
2022-11-28T01:43:01.848Z,97815.00
2022-11-28T01:43:11.864Z,97813.00
2022-11-28T01:43:21.862Z,97817.00
2022-11-28T01:43:31.988Z,97815.00
2022-11-28T01:43:41.989Z,97813.00
2022-11-28T01:43:51.990Z,97811.00
2022-11-28T01:44:02.013Z,97813.00
2022-11-28T01:44:12.039Z,97811.00
2022-11-28T01:44:22.040Z,97807.00
2022-11-28T01:44:32.296Z,97807.00
2022-11-28T01:44:42.568Z,97805.00
2022-11-28T01:44:52.332Z,97807.00
2022-11-28T01:45:02.335Z,97805.00
2022-11-28T01:45:12.344Z,97805.00
2022-11-28T01:45:22.348Z,97803.00
2022-11-28T01:45:32.344Z,97805.00
2022-11-28T01:45:42.349Z,97803.00
2022-11-28T01:45:52.475Z,97807.00
2022-11-28T01:46:02.479Z,97803.00
2022-11-28T01:46:12.737Z,97803.00
2022-11-28T01:46:22.827Z,97807.00
2022-11-28T01:46:32.862Z,97807.00
2022-11-28T01:46:43.210Z,97803.00
2022-11-28T01:46:53.295Z,97805.00
2022-11-28T01:47:03.414Z,97803.00
2022-11-28T01:47:13.614Z,97801.00
2022-11-28T01:47:23.624Z,97803.00
2022-11-28T01:47:33.751Z,97801.00
2022-11-28T01:47:44.012Z,97801.00
2022-11-28T01:47:54.129Z,97801.00
2022-11-28T01:48:04.148Z,97799.00
2022-11-28T01:48:14.416Z,97797.00
2022-11-28T01:48:24.417Z,97799.00
2022-11-28T01:48:34.418Z,97797.00
2022-11-28T01:48:44.796Z,97795.00
2022-11-28T01:48:54.800Z,97795.00
2022-11-28T01:49:04.811Z,97797.00
2022-11-28T01:49:14.815Z,97795.00
2022-11-28T01:49:24.833Z,97797.00
2022-11-28T01:49:34.833Z,97797.00
2022-11-28T01:49:44.846Z,97799.00
2022-11-28T01:49:54.863Z,97797.00
2022-11-28T01:50:04.870Z,97799.00
2022-11-28T01:50:14.869Z,97799.00
2022-11-28T01:50:24.883Z,97799.00
2022-11-28T01:50:34.897Z,97799.00
2022-11-28T01:50:44.904Z,97799.00
2022-11-28T01:50:55.037Z,97797.00
2022-11-28T01:51:05.016Z,97799.00
2022-11-28T01:51:15.015Z,97793.00
2022-11-28T01:51:25.135Z,97795.00
2022-11-28T01:51:35.406Z,97797.00
2022-11-28T01:51:45.529Z,97795.00
2022-11-28T01:51:55.530Z,97793.00
2022-11-28T01:52:05.787Z,97797.00
2022-11-28T01:52:15.792Z,97795.00
2022-11-28T01:52:25.807Z,97795.00
2022-11-28T01:52:35.806Z,97795.00
2022-11-28T01:52:45.932Z,97793.00
2022-11-28T01:52:55.932Z,97795.00
2022-11-28T01:53:05.950Z,97795.00
2022-11-28T01:53:15.952Z,97795.00
2022-11-28T01:53:25.967Z,97793.00
2022-11-28T01:53:35.966Z,97793.00
2022-11-28T01:53:46.218Z,97795.00
2022-11-28T01:53:56.229Z,97795.00
2022-11-28T01:54:06.240Z,97795.00
2022-11-28T01:54:16.248Z,97793.00
2022-11-28T01:54:26.262Z,97793.00
2022-11-28T01:54:36.266Z,97795.00
2022-11-28T01:54:46.275Z,97795.00
2022-11-28T01:54:56.287Z,97797.00
2022-11-28T01:55:06.297Z,97795.00
2022-11-28T01:55:16.309Z,97793.00
2022-11-28T01:55:26.319Z,97795.00
2022-11-28T01:55:36.346Z,97797.00
2022-11-28T01:55:46.340Z,97799.00
2022-11-28T01:55:56.348Z,97797.00
2022-11-28T01:56:06.359Z,97795.00
2022-11-28T01:56:16.364Z,97791.00
2022-11-28T01:56:26.374Z,97795.00
2022-11-28T01:56:36.389Z,97795.00
2022-11-28T01:56:46.397Z,97791.00
2022-11-28T01:56:56.405Z,97791.00
2022-11-28T01:57:06.414Z,97791.00
2022-11-28T01:57:16.424Z,97793.00
2022-11-28T01:57:26.550Z,97789.00
2022-11-28T01:57:36.549Z,97789.00
2022-11-28T01:57:46.805Z,97789.00
2022-11-28T01:57:56.801Z,97789.00
2022-11-28T01:58:06.922Z,97789.00